sensor_id;sensor_type;location;lat;lon;timestamp;P1;durP1;ratioP1;P2;durP2;ratioP2
20124;SDS011;10223;50.862;4.360;2022-12-18T00:01:00;54.80;;;22.87;;
20124;SDS011;10223;50.862;4.360;2022-12-18T00:03:30;46.67;;;21.80;;
20124;SDS011;10223;50.862;4.360;2022-12-18T00:05:58;45.67;;;20.63;;
20124;SDS011;10223;50.862;4.360;2022-12-18T00:08:25;48.43;;;22.33;;
20124;SDS011;10223;50.862;4.360;2022-12-18T00:10:52;41.73;;;20.47;;
20124;SDS011;10223;50.862;4.360;2022-12-18T00:13:19;40.97;;;17.87;;
20124;SDS011;10223;50.862;4.360;2022-12-18T00:15:47;42.60;;;20.13;;
20124;SDS011;10223;50.862;4.360;2022-12-18T00:18:14;44.27;;;20.20;;
20124;SDS011;10223;50.862;4.360;2022-12-18T00:20:41;41.20;;;19.63;;
20124;SDS011;10223;50.862;4.360;2022-12-18T00:23:07;49.37;;;22.63;;
20124;SDS011;10223;50.862;4.360;2022-12-18T00:25:35;47.93;;;21.73;;
20124;SDS011;10223;50.862;4.360;2022-12-18T00:28:02;44.97;;;21.07;;
20124;SDS011;10223;50.862;4.360;2022-12-18T00:30:29;36.80;;;18.40;;
20124;SDS011;10223;50.862;4.360;2022-12-18T00:32:58;40.00;;;18.93;;
20124;SDS011;10223;50.862;4.360;2022-12-18T00:35:25;36.83;;;17.33;;
20124;SDS011;10223;50.862;4.360;2022-12-18T00:37:52;32.67;;;16.07;;
20124;SDS011;10223;50.862;4.360;2022-12-18T00:40:19;34.33;;;16.60;;
20124;SDS011;10223;50.862;4.360;2022-12-18T00:42:46;31.33;;;15.43;;
20124;SDS011;10223;50.862;4.360;2022-12-18T00:45:21;34.93;;;15.27;;
20124;SDS011;10223;50.862;4.360;2022-12-18T00:47:48;31.20;;;14.40;;
20124;SDS011;10223;50.862;4.360;2022-12-18T00:50:16;28.13;;;13.00;;
20124;SDS011;10223;50.862;4.360;2022-12-18T00:52:43;38.90;;;15.50;;
20124;SDS011;10223;50.862;4.360;2022-12-18T00:55:10;35.97;;;16.30;;
20124;SDS011;10223;50.862;4.360;2022-12-18T00:57:37;35.20;;;16.00;;
20124;SDS011;10223;50.862;4.360;2022-12-18T01:00:05;24.90;;;12.70;;
20124;SDS011;10223;50.862;4.360;2022-12-18T01:02:34;31.13;;;15.23;;
20124;SDS011;10223;50.862;4.360;2022-12-18T01:05:01;36.70;;;16.00;;
20124;SDS011;10223;50.862;4.360;2022-12-18T01:07:29;31.27;;;12.47;;
20124;SDS011;10223;50.862;4.360;2022-12-18T01:09:56;27.13;;;13.77;;
20124;SDS011;10223;50.862;4.360;2022-12-18T01:12:23;34.07;;;15.83;;
20124;SDS011;10223;50.862;4.360;2022-12-18T01:14:50;28.03;;;14.40;;
20124;SDS011;10223;50.862;4.360;2022-12-18T01:17:17;25.10;;;12.50;;
20124;SDS011;10223;50.862;4.360;2022-12-18T01:19:44;32.40;;;14.93;;
20124;SDS011;10223;50.862;4.360;2022-12-18T01:22:11;35.07;;;15.93;;
20124;SDS011;10223;50.862;4.360;2022-12-18T01:24:39;42.50;;;20.53;;
20124;SDS011;10223;50.862;4.360;2022-12-18T01:27:06;36.77;;;17.47;;
20124;SDS011;10223;50.862;4.360;2022-12-18T01:29:33;37.63;;;16.13;;
20124;SDS011;10223;50.862;4.360;2022-12-18T01:32:00;33.70;;;16.27;;
20124;SDS011;10223;50.862;4.360;2022-12-18T01:34:27;29.43;;;13.20;;
20124;SDS011;10223;50.862;4.360;2022-12-18T01:36:54;26.37;;;13.43;;
20124;SDS011;10223;50.862;4.360;2022-12-18T01:39:21;28.97;;;13.80;;
20124;SDS011;10223;50.862;4.360;2022-12-18T01:41:50;27.27;;;13.10;;
20124;SDS011;10223;50.862;4.360;2022-12-18T01:47:37;23.27;;;11.10;;
20124;SDS011;10223;50.862;4.360;2022-12-18T01:50:07;25.43;;;12.40;;
20124;SDS011;10223;50.862;4.360;2022-12-18T01:52:40;26.00;;;12.17;;
20124;SDS011;10223;50.862;4.360;2022-12-18T01:55:09;33.67;;;16.97;;
20124;SDS011;10223;50.862;4.360;2022-12-18T01:57:38;29.80;;;14.17;;
20124;SDS011;10223;50.862;4.360;2022-12-18T02:00:07;21.13;;;10.17;;
20124;SDS011;10223;50.862;4.360;2022-12-18T02:02:37;26.27;;;11.87;;
20124;SDS011;10223;50.862;4.360;2022-12-18T02:05:05;26.77;;;13.63;;
20124;SDS011;10223;50.862;4.360;2022-12-18T02:07:36;30.57;;;14.73;;
20124;SDS011;10223;50.862;4.360;2022-12-18T02:10:10;31.27;;;11.07;;
20124;SDS011;10223;50.862;4.360;2022-12-18T02:12:45;30.73;;;12.37;;
20124;SDS011;10223;50.862;4.360;2022-12-18T02:15:19;23.83;;;11.33;;
20124;SDS011;10223;50.862;4.360;2022-12-18T02:17:54;28.40;;;14.07;;
20124;SDS011;10223;50.862;4.360;2022-12-18T02:20:27;28.13;;;13.37;;
20124;SDS011;10223;50.862;4.360;2022-12-18T02:23:04;26.73;;;12.73;;
20124;SDS011;10223;50.862;4.360;2022-12-18T02:25:40;22.43;;;11.10;;
20124;SDS011;10223;50.862;4.360;2022-12-18T02:28:33;29.13;;;13.73;;
20124;SDS011;10223;50.862;4.360;2022-12-18T02:31:04;25.93;;;13.00;;
20124;SDS011;10223;50.862;4.360;2022-12-18T02:33:34;18.27;;;9.70;;
20124;SDS011;10223;50.862;4.360;2022-12-18T02:36:02;20.10;;;10.60;;
20124;SDS011;10223;50.862;4.360;2022-12-18T02:38:31;26.90;;;12.67;;
20124;SDS011;10223;50.862;4.360;2022-12-18T02:41:02;23.23;;;10.97;;
20124;SDS011;10223;50.862;4.360;2022-12-18T02:43:31;27.97;;;13.10;;
20124;SDS011;10223;50.862;4.360;2022-12-18T02:45:59;25.23;;;12.43;;
20124;SDS011;10223;50.862;4.360;2022-12-18T02:48:46;30.00;;;14.33;;
20124;SDS011;10223;50.862;4.360;2022-12-18T02:51:15;25.20;;;11.70;;
20124;SDS011;10223;50.862;4.360;2022-12-18T02:53:49;22.50;;;10.83;;
20124;SDS011;10223;50.862;4.360;2022-12-18T02:56:21;26.03;;;12.13;;
20124;SDS011;10223;50.862;4.360;2022-12-18T02:58:55;24.00;;;12.00;;
20124;SDS011;10223;50.862;4.360;2022-12-18T03:01:28;28.83;;;13.13;;
20124;SDS011;10223;50.862;4.360;2022-12-18T03:04:01;31.93;;;14.87;;
20124;SDS011;10223;50.862;4.360;2022-12-18T03:06:33;26.93;;;12.30;;
20124;SDS011;10223;50.862;4.360;2022-12-18T03:09:06;23.37;;;11.17;;
20124;SDS011;10223;50.862;4.360;2022-12-18T03:11:38;23.80;;;10.83;;
20124;SDS011;10223;50.862;4.360;2022-12-18T03:14:26;28.90;;;13.03;;
20124;SDS011;10223;50.862;4.360;2022-12-18T03:16:58;26.10;;;13.23;;
20124;SDS011;10223;50.862;4.360;2022-12-18T03:19:28;32.17;;;13.83;;
20124;SDS011;10223;50.862;4.360;2022-12-18T03:21:58;30.07;;;13.33;;
20124;SDS011;10223;50.862;4.360;2022-12-18T03:24:29;27.33;;;12.03;;
20124;SDS011;10223;50.862;4.360;2022-12-18T03:27:01;25.50;;;11.93;;
20124;SDS011;10223;50.862;4.360;2022-12-18T03:29:32;21.10;;;10.03;;
20124;SDS011;10223;50.862;4.360;2022-12-18T03:32:04;20.57;;;10.40;;
20124;SDS011;10223;50.862;4.360;2022-12-18T03:34:36;20.80;;;10.17;;
20124;SDS011;10223;50.862;4.360;2022-12-18T03:37:06;20.77;;;9.63;;
20124;SDS011;10223;50.862;4.360;2022-12-18T03:39:33;24.27;;;11.87;;
20124;SDS011;10223;50.862;4.360;2022-12-18T03:42:05;25.70;;;12.90;;
20124;SDS011;10223;50.862;4.360;2022-12-18T03:44:39;28.33;;;12.33;;
20124;SDS011;10223;50.862;4.360;2022-12-18T03:47:12;23.33;;;11.80;;
20124;SDS011;10223;50.862;4.360;2022-12-18T03:49:45;27.37;;;11.60;;
20124;SDS011;10223;50.862;4.360;2022-12-18T03:52:17;18.57;;;10.23;;
20124;SDS011;10223;50.862;4.360;2022-12-18T03:54:50;31.97;;;15.33;;
20124;SDS011;10223;50.862;4.360;2022-12-18T03:57:20;32.27;;;16.03;;
20124;SDS011;10223;50.862;4.360;2022-12-18T03:59:51;24.50;;;11.43;;
20124;SDS011;10223;50.862;4.360;2022-12-18T04:02:22;22.70;;;11.23;;
20124;SDS011;10223;50.862;4.360;2022-12-18T04:04:51;21.60;;;10.67;;
20124;SDS011;10223;50.862;4.360;2022-12-18T04:07:20;22.47;;;11.00;;
20124;SDS011;10223;50.862;4.360;2022-12-18T04:09:48;23.23;;;10.43;;
20124;SDS011;10223;50.862;4.360;2022-12-18T04:12:16;24.63;;;10.60;;
20124;SDS011;10223;50.862;4.360;2022-12-18T04:14:44;23.47;;;11.40;;
20124;SDS011;10223;50.862;4.360;2022-12-18T04:17:11;20.70;;;9.83;;
20124;SDS011;10223;50.862;4.360;2022-12-18T04:19:38;19.73;;;9.83;;
20124;SDS011;10223;50.862;4.360;2022-12-18T04:22:05;19.17;;;9.63;;
20124;SDS011;10223;50.862;4.360;2022-12-18T04:24:32;18.07;;;9.23;;
20124;SDS011;10223;50.862;4.360;2022-12-18T04:26:59;22.67;;;9.47;;
20124;SDS011;10223;50.862;4.360;2022-12-18T04:29:26;20.43;;;9.43;;
20124;SDS011;10223;50.862;4.360;2022-12-18T04:31:54;18.97;;;9.43;;
20124;SDS011;10223;50.862;4.360;2022-12-18T04:34:21;23.37;;;11.20;;
20124;SDS011;10223;50.862;4.360;2022-12-18T04:36:48;20.23;;;9.90;;
20124;SDS011;10223;50.862;4.360;2022-12-18T04:39:16;21.97;;;10.23;;
20124;SDS011;10223;50.862;4.360;2022-12-18T04:41:43;21.13;;;10.50;;
20124;SDS011;10223;50.862;4.360;2022-12-18T04:44:10;20.47;;;10.07;;
20124;SDS011;10223;50.862;4.360;2022-12-18T04:46:37;23.87;;;10.00;;
20124;SDS011;10223;50.862;4.360;2022-12-18T04:49:05;24.50;;;10.03;;
20124;SDS011;10223;50.862;4.360;2022-12-18T04:51:32;20.03;;;9.40;;
20124;SDS011;10223;50.862;4.360;2022-12-18T04:53:59;22.80;;;11.03;;
20124;SDS011;10223;50.862;4.360;2022-12-18T04:56:27;21.17;;;10.03;;
20124;SDS011;10223;50.862;4.360;2022-12-18T04:58:54;20.80;;;10.00;;
20124;SDS011;10223;50.862;4.360;2022-12-18T05:01:20;25.90;;;11.33;;
20124;SDS011;10223;50.862;4.360;2022-12-18T05:03:48;19.60;;;9.87;;
20124;SDS011;10223;50.862;4.360;2022-12-18T05:06:16;24.10;;;10.07;;
20124;SDS011;10223;50.862;4.360;2022-12-18T05:08:43;18.70;;;9.47;;
20124;SDS011;10223;50.862;4.360;2022-12-18T05:11:11;20.30;;;9.47;;
20124;SDS011;10223;50.862;4.360;2022-12-18T05:13:40;20.80;;;8.97;;
20124;SDS011;10223;50.862;4.360;2022-12-18T05:16:08;17.43;;;9.40;;
20124;SDS011;10223;50.862;4.360;2022-12-18T05:18:35;17.20;;;8.00;;
20124;SDS011;10223;50.862;4.360;2022-12-18T05:21:05;19.43;;;9.53;;
20124;SDS011;10223;50.862;4.360;2022-12-18T05:23:37;17.53;;;8.50;;
20124;SDS011;10223;50.862;4.360;2022-12-18T05:26:04;16.83;;;8.10;;
20124;SDS011;10223;50.862;4.360;2022-12-18T05:28:33;19.23;;;7.87;;
20124;SDS011;10223;50.862;4.360;2022-12-18T05:31:02;17.37;;;8.90;;
20124;SDS011;10223;50.862;4.360;2022-12-18T05:33:30;19.90;;;8.73;;
20124;SDS011;10223;50.862;4.360;2022-12-18T05:35:58;17.00;;;8.57;;
20124;SDS011;10223;50.862;4.360;2022-12-18T05:38:26;19.50;;;9.80;;
20124;SDS011;10223;50.862;4.360;2022-12-18T05:40:56;21.90;;;9.77;;
20124;SDS011;10223;50.862;4.360;2022-12-18T05:43:24;18.03;;;9.30;;
20124;SDS011;10223;50.862;4.360;2022-12-18T05:45:51;18.13;;;9.50;;
20124;SDS011;10223;50.862;4.360;2022-12-18T05:48:19;20.03;;;8.77;;
20124;SDS011;10223;50.862;4.360;2022-12-18T05:50:47;17.87;;;7.80;;
20124;SDS011;10223;50.862;4.360;2022-12-18T05:53:16;18.63;;;8.43;;
20124;SDS011;10223;50.862;4.360;2022-12-18T05:55:44;16.87;;;7.57;;
20124;SDS011;10223;50.862;4.360;2022-12-18T05:58:13;16.13;;;7.57;;
20124;SDS011;10223;50.862;4.360;2022-12-18T06:00:42;16.83;;;8.40;;
20124;SDS011;10223;50.862;4.360;2022-12-18T06:03:10;15.73;;;6.47;;
20124;SDS011;10223;50.862;4.360;2022-12-18T06:05:39;18.20;;;7.63;;
20124;SDS011;10223;50.862;4.360;2022-12-18T06:08:07;21.37;;;9.07;;
20124;SDS011;10223;50.862;4.360;2022-12-18T06:10:34;14.80;;;7.67;;
20124;SDS011;10223;50.862;4.360;2022-12-18T06:13:01;15.30;;;7.67;;
20124;SDS011;10223;50.862;4.360;2022-12-18T06:15:29;15.87;;;7.33;;
20124;SDS011;10223;50.862;4.360;2022-12-18T06:17:56;14.57;;;7.47;;
20124;SDS011;10223;50.862;4.360;2022-12-18T06:20:23;18.63;;;8.30;;
20124;SDS011;10223;50.862;4.360;2022-12-18T06:22:50;18.43;;;7.77;;
20124;SDS011;10223;50.862;4.360;2022-12-18T06:25:17;19.40;;;8.13;;
20124;SDS011;10223;50.862;4.360;2022-12-18T06:27:44;17.60;;;7.70;;
20124;SDS011;10223;50.862;4.360;2022-12-18T06:30:13;13.70;;;7.13;;
20124;SDS011;10223;50.862;4.360;2022-12-18T06:32:42;13.57;;;7.03;;
20124;SDS011;10223;50.862;4.360;2022-12-18T06:35:09;11.93;;;6.10;;
20124;SDS011;10223;50.862;4.360;2022-12-18T06:37:36;12.97;;;6.67;;
20124;SDS011;10223;50.862;4.360;2022-12-18T06:40:03;14.90;;;6.87;;
20124;SDS011;10223;50.862;4.360;2022-12-18T06:42:31;10.07;;;5.37;;
20124;SDS011;10223;50.862;4.360;2022-12-18T06:44:58;14.00;;;7.17;;
20124;SDS011;10223;50.862;4.360;2022-12-18T06:47:25;13.77;;;7.50;;
20124;SDS011;10223;50.862;4.360;2022-12-18T06:49:53;11.50;;;6.17;;
20124;SDS011;10223;50.862;4.360;2022-12-18T06:52:20;12.67;;;6.30;;
20124;SDS011;10223;50.862;4.360;2022-12-18T06:54:47;14.77;;;7.33;;
20124;SDS011;10223;50.862;4.360;2022-12-18T06:57:14;12.53;;;5.90;;
20124;SDS011;10223;50.862;4.360;2022-12-18T06:59:41;11.63;;;5.73;;
20124;SDS011;10223;50.862;4.360;2022-12-18T07:02:10;15.33;;;6.87;;
20124;SDS011;10223;50.862;4.360;2022-12-18T07:04:37;12.47;;;5.70;;
20124;SDS011;10223;50.862;4.360;2022-12-18T07:07:06;11.13;;;6.00;;
20124;SDS011;10223;50.862;4.360;2022-12-18T07:09:33;10.67;;;5.40;;
20124;SDS011;10223;50.862;4.360;2022-12-18T07:12:00;12.97;;;6.43;;
20124;SDS011;10223;50.862;4.360;2022-12-18T07:14:27;13.03;;;6.13;;
20124;SDS011;10223;50.862;4.360;2022-12-18T07:16:54;13.27;;;5.87;;
20124;SDS011;10223;50.862;4.360;2022-12-18T07:19:21;11.90;;;6.07;;
20124;SDS011;10223;50.862;4.360;2022-12-18T07:21:51;11.40;;;5.77;;
20124;SDS011;10223;50.862;4.360;2022-12-18T07:24:19;13.03;;;6.13;;
20124;SDS011;10223;50.862;4.360;2022-12-18T07:26:46;13.37;;;6.23;;
20124;SDS011;10223;50.862;4.360;2022-12-18T07:29:13;14.43;;;6.27;;
20124;SDS011;10223;50.862;4.360;2022-12-18T07:31:40;11.93;;;5.77;;
20124;SDS011;10223;50.862;4.360;2022-12-18T07:34:09;13.50;;;6.07;;
20124;SDS011;10223;50.862;4.360;2022-12-18T07:36:36;11.87;;;6.40;;
20124;SDS011;10223;50.862;4.360;2022-12-18T07:39:03;10.57;;;5.70;;
20124;SDS011;10223;50.862;4.360;2022-12-18T07:41:32;14.03;;;6.77;;
20124;SDS011;10223;50.862;4.360;2022-12-18T07:43:59;13.63;;;5.63;;
20124;SDS011;10223;50.862;4.360;2022-12-18T07:46:26;11.53;;;6.13;;
20124;SDS011;10223;50.862;4.360;2022-12-18T07:48:53;11.17;;;5.93;;
20124;SDS011;10223;50.862;4.360;2022-12-18T07:51:20;12.67;;;5.83;;
20124;SDS011;10223;50.862;4.360;2022-12-18T07:53:47;12.00;;;6.33;;
20124;SDS011;10223;50.862;4.360;2022-12-18T07:56:14;13.50;;;5.80;;
20124;SDS011;10223;50.862;4.360;2022-12-18T07:58:42;13.87;;;6.43;;
20124;SDS011;10223;50.862;4.360;2022-12-18T08:01:10;13.83;;;6.57;;
20124;SDS011;10223;50.862;4.360;2022-12-18T08:03:38;12.40;;;6.27;;
20124;SDS011;10223;50.862;4.360;2022-12-18T08:06:06;13.07;;;6.13;;
20124;SDS011;10223;50.862;4.360;2022-12-18T08:08:35;10.40;;;6.13;;
20124;SDS011;10223;50.862;4.360;2022-12-18T08:11:02;10.57;;;5.50;;
20124;SDS011;10223;50.862;4.360;2022-12-18T08:13:29;11.93;;;6.57;;
20124;SDS011;10223;50.862;4.360;2022-12-18T08:15:58;10.00;;;5.60;;
20124;SDS011;10223;50.862;4.360;2022-12-18T08:18:26;12.87;;;6.63;;
20124;SDS011;10223;50.862;4.360;2022-12-18T08:20:53;11.53;;;5.83;;
20124;SDS011;10223;50.862;4.360;2022-12-18T08:23:21;12.17;;;5.80;;
20124;SDS011;10223;50.862;4.360;2022-12-18T08:25:48;10.97;;;5.23;;
20124;SDS011;10223;50.862;4.360;2022-12-18T08:28:16;11.33;;;6.20;;
20124;SDS011;10223;50.862;4.360;2022-12-18T08:30:43;13.63;;;6.60;;
20124;SDS011;10223;50.862;4.360;2022-12-18T08:33:11;10.93;;;5.57;;
20124;SDS011;10223;50.862;4.360;2022-12-18T08:35:38;9.97;;;5.57;;
20124;SDS011;10223;50.862;4.360;2022-12-18T08:38:05;13.40;;;6.60;;
20124;SDS011;10223;50.862;4.360;2022-12-18T08:40:32;11.80;;;6.03;;
20124;SDS011;10223;50.862;4.360;2022-12-18T08:42:59;15.73;;;6.53;;
20124;SDS011;10223;50.862;4.360;2022-12-18T08:45:43;10.17;;;5.50;;
20124;SDS011;10223;50.862;4.360;2022-12-18T08:48:12;10.90;;;6.33;;
20124;SDS011;10223;50.862;4.360;2022-12-18T08:50:39;13.63;;;6.20;;
20124;SDS011;10223;50.862;4.360;2022-12-18T08:53:07;14.63;;;6.53;;
20124;SDS011;10223;50.862;4.360;2022-12-18T08:55:34;15.67;;;7.00;;
20124;SDS011;10223;50.862;4.360;2022-12-18T08:58:01;11.10;;;6.23;;
20124;SDS011;10223;50.862;4.360;2022-12-18T09:00:28;11.43;;;6.37;;
20124;SDS011;10223;50.862;4.360;2022-12-18T09:02:55;9.90;;;6.03;;
20124;SDS011;10223;50.862;4.360;2022-12-18T09:05:23;12.63;;;6.60;;
20124;SDS011;10223;50.862;4.360;2022-12-18T09:07:50;11.23;;;6.77;;
20124;SDS011;10223;50.862;4.360;2022-12-18T09:10:17;15.03;;;6.47;;
20124;SDS011;10223;50.862;4.360;2022-12-18T09:12:44;15.27;;;7.87;;
20124;SDS011;10223;50.862;4.360;2022-12-18T09:15:11;14.97;;;6.53;;
20124;SDS011;10223;50.862;4.360;2022-12-18T09:17:38;12.73;;;6.67;;
20124;SDS011;10223;50.862;4.360;2022-12-18T09:20:05;14.10;;;6.23;;
20124;SDS011;10223;50.862;4.360;2022-12-18T09:22:34;13.03;;;7.40;;
20124;SDS011;10223;50.862;4.360;2022-12-18T09:25:01;10.07;;;6.00;;
20124;SDS011;10223;50.862;4.360;2022-12-18T09:27:28;12.53;;;6.37;;
20124;SDS011;10223;50.862;4.360;2022-12-18T09:29:55;13.43;;;6.37;;
20124;SDS011;10223;50.862;4.360;2022-12-18T09:32:22;15.43;;;7.27;;
20124;SDS011;10223;50.862;4.360;2022-12-18T09:34:49;12.43;;;6.33;;
20124;SDS011;10223;50.862;4.360;2022-12-18T09:37:16;14.17;;;7.17;;
20124;SDS011;10223;50.862;4.360;2022-12-18T09:39:44;15.20;;;6.30;;
20124;SDS011;10223;50.862;4.360;2022-12-18T09:42:12;14.00;;;6.87;;
20124;SDS011;10223;50.862;4.360;2022-12-18T09:44:47;15.53;;;6.77;;
20124;SDS011;10223;50.862;4.360;2022-12-18T09:47:17;14.80;;;7.70;;
20124;SDS011;10223;50.862;4.360;2022-12-18T09:49:46;14.40;;;7.23;;
20124;SDS011;10223;50.862;4.360;2022-12-18T09:52:17;15.10;;;8.30;;
20124;SDS011;10223;50.862;4.360;2022-12-18T09:54:50;13.13;;;6.47;;
20124;SDS011;10223;50.862;4.360;2022-12-18T09:57:21;15.53;;;6.60;;
20124;SDS011;10223;50.862;4.360;2022-12-18T09:59:51;12.47;;;7.87;;
20124;SDS011;10223;50.862;4.360;2022-12-18T10:02:22;16.67;;;9.37;;
20124;SDS011;10223;50.862;4.360;2022-12-18T10:04:54;19.37;;;9.13;;
20124;SDS011;10223;50.862;4.360;2022-12-18T10:07:29;17.07;;;8.40;;
20124;SDS011;10223;50.862;4.360;2022-12-18T10:10:06;17.17;;;9.47;;
20124;SDS011;10223;50.862;4.360;2022-12-18T10:12:42;13.63;;;7.57;;
20124;SDS011;10223;50.862;4.360;2022-12-18T10:15:13;14.30;;;7.13;;
20124;SDS011;10223;50.862;4.360;2022-12-18T10:17:49;14.57;;;8.77;;
20124;SDS011;10223;50.862;4.360;2022-12-18T10:20:20;15.63;;;7.60;;
20124;SDS011;10223;50.862;4.360;2022-12-18T10:22:55;17.27;;;9.23;;
20124;SDS011;10223;50.862;4.360;2022-12-18T10:25:30;18.17;;;9.20;;
20124;SDS011;10223;50.862;4.360;2022-12-18T10:28:06;16.87;;;8.80;;
20124;SDS011;10223;50.862;4.360;2022-12-18T10:30:36;15.73;;;8.80;;
20124;SDS011;10223;50.862;4.360;2022-12-18T10:33:08;19.07;;;9.43;;
20124;SDS011;10223;50.862;4.360;2022-12-18T10:35:37;16.80;;;8.90;;
20124;SDS011;10223;50.862;4.360;2022-12-18T10:38:20;18.73;;;8.97;;
20124;SDS011;10223;50.862;4.360;2022-12-18T10:40:50;18.80;;;10.33;;
20124;SDS011;10223;50.862;4.360;2022-12-18T10:43:20;21.10;;;9.40;;
20124;SDS011;10223;50.862;4.360;2022-12-18T10:46:01;18.60;;;10.47;;
20124;SDS011;10223;50.862;4.360;2022-12-18T10:48:47;14.17;;;8.07;;
20124;SDS011;10223;50.862;4.360;2022-12-18T10:51:24;15.97;;;7.30;;
20124;SDS011;10223;50.862;4.360;2022-12-18T10:53:55;19.57;;;10.50;;
20124;SDS011;10223;50.862;4.360;2022-12-18T10:56:26;17.83;;;8.77;;
20124;SDS011;10223;50.862;4.360;2022-12-18T10:58:55;17.63;;;9.23;;
20124;SDS011;10223;50.862;4.360;2022-12-18T11:01:24;16.50;;;8.83;;
20124;SDS011;10223;50.862;4.360;2022-12-18T11:03:58;20.57;;;11.17;;
20124;SDS011;10223;50.862;4.360;2022-12-18T11:06:28;15.37;;;8.53;;
20124;SDS011;10223;50.862;4.360;2022-12-18T11:08:59;14.87;;;8.27;;
20124;SDS011;10223;50.862;4.360;2022-12-18T11:11:28;18.37;;;9.37;;
20124;SDS011;10223;50.862;4.360;2022-12-18T11:14:01;19.00;;;8.13;;
20124;SDS011;10223;50.862;4.360;2022-12-18T11:16:31;17.57;;;8.43;;
20124;SDS011;10223;50.862;4.360;2022-12-18T11:19:11;14.60;;;8.37;;
20124;SDS011;10223;50.862;4.360;2022-12-18T11:21:45;20.10;;;8.70;;
20124;SDS011;10223;50.862;4.360;2022-12-18T11:24:17;21.23;;;9.57;;
20124;SDS011;10223;50.862;4.360;2022-12-18T11:26:48;17.10;;;9.10;;
20124;SDS011;10223;50.862;4.360;2022-12-18T11:29:16;16.83;;;8.50;;
20124;SDS011;10223;50.862;4.360;2022-12-18T11:31:44;19.17;;;8.83;;
20124;SDS011;10223;50.862;4.360;2022-12-18T11:34:11;14.67;;;7.93;;
20124;SDS011;10223;50.862;4.360;2022-12-18T11:36:52;18.87;;;8.20;;
20124;SDS011;10223;50.862;4.360;2022-12-18T11:39:23;21.47;;;9.50;;
20124;SDS011;10223;50.862;4.360;2022-12-18T11:41:58;21.43;;;8.97;;
20124;SDS011;10223;50.862;4.360;2022-12-18T11:44:38;15.10;;;7.73;;
20124;SDS011;10223;50.862;4.360;2022-12-18T11:47:10;16.80;;;7.53;;
20124;SDS011;10223;50.862;4.360;2022-12-18T11:49:42;18.00;;;9.27;;
20124;SDS011;10223;50.862;4.360;2022-12-18T11:52:10;17.80;;;8.70;;
20124;SDS011;10223;50.862;4.360;2022-12-18T11:54:43;18.50;;;10.10;;
20124;SDS011;10223;50.862;4.360;2022-12-18T11:57:13;15.70;;;8.53;;
20124;SDS011;10223;50.862;4.360;2022-12-18T11:59:52;18.70;;;9.60;;
20124;SDS011;10223;50.862;4.360;2022-12-18T12:02:34;18.37;;;8.63;;
20124;SDS011;10223;50.862;4.360;2022-12-18T12:05:21;18.43;;;8.63;;
20124;SDS011;10223;50.862;4.360;2022-12-18T12:07:59;18.33;;;9.93;;
20124;SDS011;10223;50.862;4.360;2022-12-18T12:10:36;17.50;;;9.67;;
20124;SDS011;10223;50.862;4.360;2022-12-18T12:13:18;19.87;;;9.90;;
20124;SDS011;10223;50.862;4.360;2022-12-18T12:16:04;19.93;;;9.97;;
20124;SDS011;10223;50.862;4.360;2022-12-18T12:18:43;16.47;;;8.67;;
20124;SDS011;10223;50.862;4.360;2022-12-18T12:21:22;18.70;;;8.47;;
20124;SDS011;10223;50.862;4.360;2022-12-18T12:23:56;21.43;;;9.93;;
20124;SDS011;10223;50.862;4.360;2022-12-18T12:26:32;21.47;;;10.17;;
20124;SDS011;10223;50.862;4.360;2022-12-18T12:29:09;19.40;;;10.47;;
20124;SDS011;10223;50.862;4.360;2022-12-18T12:32:07;21.63;;;10.63;;
20124;SDS011;10223;50.862;4.360;2022-12-18T12:34:49;17.33;;;7.63;;
20124;SDS011;10223;50.862;4.360;2022-12-18T12:37:27;23.27;;;10.60;;
20124;SDS011;10223;50.862;4.360;2022-12-18T12:40:02;18.73;;;10.37;;
20124;SDS011;10223;50.862;4.360;2022-12-18T12:42:30;25.87;;;11.77;;
20124;SDS011;10223;50.862;4.360;2022-12-18T12:45:20;20.50;;;11.87;;
20124;SDS011;10223;50.862;4.360;2022-12-18T12:47:53;25.50;;;9.77;;
20124;SDS011;10223;50.862;4.360;2022-12-18T12:50:22;26.20;;;11.70;;
20124;SDS011;10223;50.862;4.360;2022-12-18T12:52:50;31.20;;;10.67;;
20124;SDS011;10223;50.862;4.360;2022-12-18T12:55:20;20.33;;;10.17;;
20124;SDS011;10223;50.862;4.360;2022-12-18T12:57:51;20.93;;;10.40;;
20124;SDS011;10223;50.862;4.360;2022-12-18T13:00:25;22.23;;;10.47;;
20124;SDS011;10223;50.862;4.360;2022-12-18T13:02:59;21.20;;;11.20;;
20124;SDS011;10223;50.862;4.360;2022-12-18T13:05:36;25.17;;;12.37;;
20124;SDS011;10223;50.862;4.360;2022-12-18T13:08:08;22.80;;;10.87;;
20124;SDS011;10223;50.862;4.360;2022-12-18T13:10:36;21.40;;;9.47;;
20124;SDS011;10223;50.862;4.360;2022-12-18T13:13:06;23.20;;;12.50;;
20124;SDS011;10223;50.862;4.360;2022-12-18T13:15:37;27.83;;;12.87;;
20124;SDS011;10223;50.862;4.360;2022-12-18T13:18:13;23.20;;;11.57;;
20124;SDS011;10223;50.862;4.360;2022-12-18T13:20:43;29.17;;;12.40;;
20124;SDS011;10223;50.862;4.360;2022-12-18T13:23:19;20.67;;;10.03;;
20124;SDS011;10223;50.862;4.360;2022-12-18T13:25:57;23.67;;;12.93;;
20124;SDS011;10223;50.862;4.360;2022-12-18T13:34:19;25.70;;;12.67;;
20124;SDS011;10223;50.862;4.360;2022-12-18T13:36:47;26.43;;;11.93;;
20124;SDS011;10223;50.862;4.360;2022-12-18T13:39:22;22.83;;;11.60;;
20124;SDS011;10223;50.862;4.360;2022-12-18T13:41:52;31.77;;;13.20;;
20124;SDS011;10223;50.862;4.360;2022-12-18T13:44:30;24.07;;;11.40;;
20124;SDS011;10223;50.862;4.360;2022-12-18T13:46:59;31.13;;;12.97;;
20124;SDS011;10223;50.862;4.360;2022-12-18T13:49:30;26.17;;;11.67;;
20124;SDS011;10223;50.862;4.360;2022-12-18T13:52:13;27.77;;;13.10;;
20124;SDS011;10223;50.862;4.360;2022-12-18T13:54:42;24.07;;;10.70;;
20124;SDS011;10223;50.862;4.360;2022-12-18T13:57:25;27.13;;;12.40;;
20124;SDS011;10223;50.862;4.360;2022-12-18T13:59:53;29.93;;;14.47;;
20124;SDS011;10223;50.862;4.360;2022-12-18T14:02:21;26.67;;;13.43;;
20124;SDS011;10223;50.862;4.360;2022-12-18T14:04:50;28.93;;;13.17;;
20124;SDS011;10223;50.862;4.360;2022-12-18T14:07:19;24.43;;;11.80;;
20124;SDS011;10223;50.862;4.360;2022-12-18T14:09:49;31.47;;;14.40;;
20124;SDS011;10223;50.862;4.360;2022-12-18T14:12:18;26.87;;;13.23;;
20124;SDS011;10223;50.862;4.360;2022-12-18T14:15:06;29.93;;;13.93;;
20124;SDS011;10223;50.862;4.360;2022-12-18T14:17:40;25.20;;;12.27;;
20124;SDS011;10223;50.862;4.360;2022-12-18T14:20:13;27.23;;;12.90;;
20124;SDS011;10223;50.862;4.360;2022-12-18T14:22:42;32.10;;;14.70;;
20124;SDS011;10223;50.862;4.360;2022-12-18T14:25:15;23.47;;;11.53;;
20124;SDS011;10223;50.862;4.360;2022-12-18T14:27:45;30.83;;;15.30;;
20124;SDS011;10223;50.862;4.360;2022-12-18T14:30:23;30.47;;;13.63;;
20124;SDS011;10223;50.862;4.360;2022-12-18T14:33:03;31.67;;;15.37;;
20124;SDS011;10223;50.862;4.360;2022-12-18T14:35:33;31.07;;;14.90;;
20124;SDS011;10223;50.862;4.360;2022-12-18T14:38:09;31.23;;;16.13;;
20124;SDS011;10223;50.862;4.360;2022-12-18T14:40:47;31.10;;;14.93;;
20124;SDS011;10223;50.862;4.360;2022-12-18T14:43:18;28.83;;;15.27;;
20124;SDS011;10223;50.862;4.360;2022-12-18T14:45:45;28.90;;;13.60;;
20124;SDS011;10223;50.862;4.360;2022-12-18T14:48:13;33.70;;;13.57;;
20124;SDS011;10223;50.862;4.360;2022-12-18T14:50:45;34.70;;;15.23;;
20124;SDS011;10223;50.862;4.360;2022-12-18T14:53:22;26.77;;;11.40;;
20124;SDS011;10223;50.862;4.360;2022-12-18T14:55:53;27.97;;;13.80;;